sensor_id;sensor_type;location;lat;lon;timestamp;temperature;humidity
7684;DHT22;3884;48.616;12.872;2023-09-08T00:01:35;15.30;1.00
7684;DHT22;3884;48.616;12.872;2023-09-08T00:04:03;15.30;99.90
7684;DHT22;3884;48.616;12.872;2023-09-08T00:06:33;15.30;99.90
7684;DHT22;3884;48.616;12.872;2023-09-08T00:09:03;15.20;99.90
7684;DHT22;3884;48.616;12.872;2023-09-08T00:11:30;15.20;99.90
7684;DHT22;3884;48.616;12.872;2023-09-08T00:13:58;15.00;1.00
7684;DHT22;3884;48.616;12.872;2023-09-08T00:16:30;15.00;18.20
7684;DHT22;3884;48.616;12.872;2023-09-08T00:18:58;15.00;1.00
7684;DHT22;3884;48.616;12.872;2023-09-08T00:21:27;15.10;1.00
7684;DHT22;3884;48.616;12.872;2023-09-08T00:23:54;14.90;1.00
7684;DHT22;3884;48.616;12.872;2023-09-08T00:26:22;14.80;1.00
7684;DHT22;3884;48.616;12.872;2023-09-08T00:28:50;14.90;99.90
7684;DHT22;3884;48.616;12.872;2023-09-08T00:31:17;14.70;1.00
7684;DHT22;3884;48.616;12.872;2023-09-08T00:33:53;14.80;99.90
7684;DHT22;3884;48.616;12.872;2023-09-08T00:36:28;14.90;1.00
7684;DHT22;3884;48.616;12.872;2023-09-08T00:38:55;14.80;1.00
7684;DHT22;3884;48.616;12.872;2023-09-08T00:41:23;14.60;1.00
7684;DHT22;3884;48.616;12.872;2023-09-08T00:43:51;14.60;31.20
7684;DHT22;3884;48.616;12.872;2023-09-08T00:46:19;14.60;99.90
7684;DHT22;3884;48.616;12.872;2023-09-08T00:48:55;14.60;47.70
7684;DHT22;3884;48.616;12.872;2023-09-08T00:51:24;14.60;99.90
7684;DHT22;3884;48.616;12.872;2023-09-08T00:53:53;14.50;99.90
7684;DHT22;3884;48.616;12.872;2023-09-08T00:56:23;14.60;99.90
7684;DHT22;3884;48.616;12.872;2023-09-08T00:58:51;14.50;99.90
7684;DHT22;3884;48.616;12.872;2023-09-08T01:01:19;14.40;99.90
7684;DHT22;3884;48.616;12.872;2023-09-08T01:03:49;14.50;99.90
7684;DHT22;3884;48.616;12.872;2023-09-08T01:06:16;14.50;99.90
7684;DHT22;3884;48.616;12.872;2023-09-08T01:08:44;14.50;99.90
7684;DHT22;3884;48.616;12.872;2023-09-08T01:11:12;14.40;99.90
7684;DHT22;3884;48.616;12.872;2023-09-08T01:13:43;14.40;1.00
7684;DHT22;3884;48.616;12.872;2023-09-08T01:16:11;14.50;1.00
7684;DHT22;3884;48.616;12.872;2023-09-08T01:18:40;14.40;1.00
7684;DHT22;3884;48.616;12.872;2023-09-08T01:21:31;14.10;1.00
7684;DHT22;3884;48.616;12.872;2023-09-08T01:24:21;13.90;1.00
7684;DHT22;3884;48.616;12.872;2023-09-08T01:26:56;13.80;1.00
7684;DHT22;3884;48.616;12.872;2023-09-08T01:29:23;13.80;99.90
7684;DHT22;3884;48.616;12.872;2023-09-08T01:31:52;13.80;50.10
7684;DHT22;3884;48.616;12.872;2023-09-08T01:34:21;13.70;99.90
7684;DHT22;3884;48.616;12.872;2023-09-08T01:36:57;13.80;1.00
7684;DHT22;3884;48.616;12.872;2023-09-08T01:39:27;13.80;1.00
7684;DHT22;3884;48.616;12.872;2023-09-08T01:41:54;13.80;1.00
7684;DHT22;3884;48.616;12.872;2023-09-08T01:44:27;13.70;1.00
7684;DHT22;3884;48.616;12.872;2023-09-08T01:46:55;13.60;99.90
7684;DHT22;3884;48.616;12.872;2023-09-08T01:49:23;13.70;99.90
7684;DHT22;3884;48.616;12.872;2023-09-08T01:52:00;13.60;53.60
7684;DHT22;3884;48.616;12.872;2023-09-08T01:54:28;13.60;1.00
7684;DHT22;3884;48.616;12.872;2023-09-08T01:56:56;13.70;99.90
7684;DHT22;3884;48.616;12.872;2023-09-08T01:59:29;13.60;1.00
7684;DHT22;3884;48.616;12.872;2023-09-08T02:01:57;13.60;1.00
7684;DHT22;3884;48.616;12.872;2023-09-08T02:04:24;13.60;99.90
7684;DHT22;3884;48.616;12.872;2023-09-08T02:06:51;13.50;99.90
7684;DHT22;3884;48.616;12.872;2023-09-08T02:09:19;13.50;99.90
7684;DHT22;3884;48.616;12.872;2023-09-08T02:11:46;13.50;1.00
7684;DHT22;3884;48.616;12.872;2023-09-08T02:14:13;13.50;1.00
7684;DHT22;3884;48.616;12.872;2023-09-08T02:16:44;13.50;1.00
7684;DHT22;3884;48.616;12.872;2023-09-08T02:19:13;13.50;12.60
7684;DHT22;3884;48.616;12.872;2023-09-08T02:21:41;13.50;99.90
7684;DHT22;3884;48.616;12.872;2023-09-08T02:24:10;13.50;94.10
7684;DHT22;3884;48.616;12.872;2023-09-08T02:26:38;13.50;1.00
7684;DHT22;3884;48.616;12.872;2023-09-08T02:29:06;13.50;90.70
7684;DHT22;3884;48.616;12.872;2023-09-08T02:31:33;13.40;1.00
7684;DHT22;3884;48.616;12.872;2023-09-08T02:34:04;13.40;1.00
7684;DHT22;3884;48.616;12.872;2023-09-08T02:36:31;13.40;1.00
7684;DHT22;3884;48.616;12.872;2023-09-08T02:39:01;13.50;1.00
7684;DHT22;3884;48.616;12.872;2023-09-08T02:41:28;13.40;20.80
7684;DHT22;3884;48.616;12.872;2023-09-08T02:43:56;13.40;1.00
7684;DHT22;3884;48.616;12.872;2023-09-08T02:46:24;13.30;1.00
7684;DHT22;3884;48.616;12.872;2023-09-08T02:48:53;13.10;1.00
7684;DHT22;3884;48.616;12.872;2023-09-08T02:51:23;13.00;1.00
7684;DHT22;3884;48.616;12.872;2023-09-08T02:53:50;12.90;1.00
7684;DHT22;3884;48.616;12.872;2023-09-08T02:56:17;12.90;1.00
7684;DHT22;3884;48.616;12.872;2023-09-08T02:58:46;12.90;1.00
7684;DHT22;3884;48.616;12.872;2023-09-08T03:01:16;12.90;99.90
7684;DHT22;3884;48.616;12.872;2023-09-08T03:03:46;12.80;12.80
7684;DHT22;3884;48.616;12.872;2023-09-08T03:06:17;12.80;99.90
7684;DHT22;3884;48.616;12.872;2023-09-08T03:08:46;12.90;99.90
7684;DHT22;3884;48.616;12.872;2023-09-08T03:11:14;12.90;1.00
7684;DHT22;3884;48.616;12.872;2023-09-08T03:13:42;12.90;92.40
7684;DHT22;3884;48.616;12.872;2023-09-08T03:16:10;12.90;1.00
7684;DHT22;3884;48.616;12.872;2023-09-08T03:18:39;13.10;99.90
7684;DHT22;3884;48.616;12.872;2023-09-08T03:21:06;12.90;99.90
7684;DHT22;3884;48.616;12.872;2023-09-08T03:23:37;12.70;1.00
7684;DHT22;3884;48.616;12.872;2023-09-08T03:26:06;12.70;99.90
7684;DHT22;3884;48.616;12.872;2023-09-08T03:28:35;12.80;93.70
7684;DHT22;3884;48.616;12.872;2023-09-08T03:31:02;12.80;1.00
7684;DHT22;3884;48.616;12.872;2023-09-08T03:33:32;12.70;1.00
7684;DHT22;3884;48.616;12.872;2023-09-08T03:36:00;12.60;99.90
7684;DHT22;3884;48.616;12.872;2023-09-08T03:38:29;12.70;1.00
7684;DHT22;3884;48.616;12.872;2023-09-08T03:40:57;12.80;99.90
7684;DHT22;3884;48.616;12.872;2023-09-08T03:43:30;12.70;1.00
7684;DHT22;3884;48.616;12.872;2023-09-08T03:45:58;12.80;1.00
7684;DHT22;3884;48.616;12.872;2023-09-08T03:48:26;12.80;1.00
7684;DHT22;3884;48.616;12.872;2023-09-08T03:50:54;12.80;1.00
7684;DHT22;3884;48.616;12.872;2023-09-08T03:53:25;12.80;1.00
7684;DHT22;3884;48.616;12.872;2023-09-08T03:55:54;12.80;1.00
7684;DHT22;3884;48.616;12.872;2023-09-08T03:58:22;12.60;99.90
7684;DHT22;3884;48.616;12.872;2023-09-08T04:00:54;12.60;1.00
7684;DHT22;3884;48.616;12.872;2023-09-08T04:03:22;12.50;99.90
7684;DHT22;3884;48.616;12.872;2023-09-08T04:05:49;12.50;99.90
7684;DHT22;3884;48.616;12.872;2023-09-08T04:08:16;12.40;35.90
7684;DHT22;3884;48.616;12.872;2023-09-08T04:10:43;12.40;99.90
7684;DHT22;3884;48.616;12.872;2023-09-08T04:13:10;12.40;1.00
7684;DHT22;3884;48.616;12.872;2023-09-08T04:15:38;12.40;1.00
7684;DHT22;3884;48.616;12.872;2023-09-08T04:18:07;12.40;58.10
7684;DHT22;3884;48.616;12.872;2023-09-08T04:20:34;12.40;1.00
7684;DHT22;3884;48.616;12.872;2023-09-08T04:23:02;12.40;1.00
7684;DHT22;3884;48.616;12.872;2023-09-08T04:25:30;12.40;1.00
7684;DHT22;3884;48.616;12.872;2023-09-08T04:27:57;12.40;1.00
7684;DHT22;3884;48.616;12.872;2023-09-08T04:30:25;12.40;1.00
7684;DHT22;3884;48.616;12.872;2023-09-08T04:32:53;12.40;1.00
7684;DHT22;3884;48.616;12.872;2023-09-08T04:35:23;12.40;11.90
7684;DHT22;3884;48.616;12.872;2023-09-08T04:37:50;12.30;99.90
7684;DHT22;3884;48.616;12.872;2023-09-08T04:40:24;12.30;99.90
7684;DHT22;3884;48.616;12.872;2023-09-08T04:42:52;12.30;1.00
7684;DHT22;3884;48.616;12.872;2023-09-08T04:45:20;12.20;1.00
7684;DHT22;3884;48.616;12.872;2023-09-08T04:47:48;12.20;99.90
7684;DHT22;3884;48.616;12.872;2023-09-08T04:50:17;12.20;99.90
7684;DHT22;3884;48.616;12.872;2023-09-08T04:52:46;12.10;89.80
7684;DHT22;3884;48.616;12.872;2023-09-08T04:55:17;12.00;99.90
7684;DHT22;3884;48.616;12.872;2023-09-08T04:57:45;11.90;99.90
7684;DHT22;3884;48.616;12.872;2023-09-08T05:00:15;11.90;99.90
7684;DHT22;3884;48.616;12.872;2023-09-08T05:02:44;12.00;99.90
7684;DHT22;3884;48.616;12.872;2023-09-08T05:05:11;12.00;99.90
7684;DHT22;3884;48.616;12.872;2023-09-08T05:07:41;12.00;99.90
7684;DHT22;3884;48.616;12.872;2023-09-08T05:10:13;12.00;71.20
7684;DHT22;3884;48.616;12.872;2023-09-08T05:12:43;12.00;1.00
7684;DHT22;3884;48.616;12.872;2023-09-08T05:15:11;12.10;1.00
7684;DHT22;3884;48.616;12.872;2023-09-08T05:17:44;12.10;99.90
7684;DHT22;3884;48.616;12.872;2023-09-08T05:20:13;12.10;1.00
7684;DHT22;3884;48.616;12.872;2023-09-08T05:22:41;12.10;79.50
7684;DHT22;3884;48.616;12.872;2023-09-08T05:25:09;12.20;21.90
7684;DHT22;3884;48.616;12.872;2023-09-08T05:27:40;12.20;1.00
7684;DHT22;3884;48.616;12.872;2023-09-08T05:30:08;12.30;99.90
7684;DHT22;3884;48.616;12.872;2023-09-08T05:32:36;12.20;1.00
7684;DHT22;3884;48.616;12.872;2023-09-08T05:35:05;12.10;1.00
7684;DHT22;3884;48.616;12.872;2023-09-08T05:37:33;12.10;99.90
7684;DHT22;3884;48.616;12.872;2023-09-08T05:40:00;12.20;99.90
7684;DHT22;3884;48.616;12.872;2023-09-08T05:42:29;12.30;99.90
7684;DHT22;3884;48.616;12.872;2023-09-08T05:45:06;12.50;82.00
7684;DHT22;3884;48.616;12.872;2023-09-08T05:47:34;12.60;1.00
7684;DHT22;3884;48.616;12.872;2023-09-08T05:50:03;12.60;99.90
7684;DHT22;3884;48.616;12.872;2023-09-08T05:52:32;12.70;99.90
7684;DHT22;3884;48.616;12.872;2023-09-08T05:55:01;12.70;1.00
7684;DHT22;3884;48.616;12.872;2023-09-08T05:57:29;12.80;1.00
7684;DHT22;3884;48.616;12.872;2023-09-08T05:59:56;12.90;99.90
7684;DHT22;3884;48.616;12.872;2023-09-08T06:02:24;13.00;1.00
7684;DHT22;3884;48.616;12.872;2023-09-08T06:04:51;13.10;1.00
7684;DHT22;3884;48.616;12.872;2023-09-08T06:07:18;13.20;99.90
7684;DHT22;3884;48.616;12.872;2023-09-08T06:09:45;13.30;99.90
7684;DHT22;3884;48.616;12.872;2023-09-08T06:12:13;13.20;1.00
7684;DHT22;3884;48.616;12.872;2023-09-08T06:14:40;13.30;1.00
7684;DHT22;3884;48.616;12.872;2023-09-08T06:17:06;13.40;1.00
7684;DHT22;3884;48.616;12.872;2023-09-08T06:19:35;13.50;1.00
7684;DHT22;3884;48.616;12.872;2023-09-08T06:22:03;13.60;1.00
7684;DHT22;3884;48.616;12.872;2023-09-08T06:24:30;13.70;1.00
7684;DHT22;3884;48.616;12.872;2023-09-08T06:26:57;13.80;1.00
7684;DHT22;3884;48.616;12.872;2023-09-08T06:29:24;14.00;1.00
7684;DHT22;3884;48.616;12.872;2023-09-08T06:31:51;14.10;1.00
7684;DHT22;3884;48.616;12.872;2023-09-08T06:34:18;14.20;1.00
7684;DHT22;3884;48.616;12.872;2023-09-08T06:36:49;14.30;1.00
7684;DHT22;3884;48.616;12.872;2023-09-08T06:39:16;14.30;1.00
7684;DHT22;3884;48.616;12.872;2023-09-08T06:41:43;14.50;1.00
7684;DHT22;3884;48.616;12.872;2023-09-08T06:44:14;14.60;1.00
7684;DHT22;3884;48.616;12.872;2023-09-08T06:46:40;14.60;18.20
7684;DHT22;3884;48.616;12.872;2023-09-08T06:49:08;14.80;97.20
7684;DHT22;3884;48.616;12.872;2023-09-08T06:51:35;15.00;1.00
7684;DHT22;3884;48.616;12.872;2023-09-08T06:54:05;15.30;1.00
7684;DHT22;3884;48.616;12.872;2023-09-08T06:56:37;15.40;79.80
7684;DHT22;3884;48.616;12.872;2023-09-08T06:59:05;15.70;1.00
7684;DHT22;3884;48.616;12.872;2023-09-08T07:01:33;16.10;1.00
7684;DHT22;3884;48.616;12.872;2023-09-08T07:04:00;16.40;1.00
7684;DHT22;3884;48.616;12.872;2023-09-08T07:06:27;16.80;1.00
7684;DHT22;3884;48.616;12.872;2023-09-08T07:08:55;17.10;1.00
7684;DHT22;3884;48.616;12.872;2023-09-08T07:11:24;17.50;1.00
7684;DHT22;3884;48.616;12.872;2023-09-08T07:13:52;17.80;99.90
7684;DHT22;3884;48.616;12.872;2023-09-08T07:16:19;18.20;99.90
7684;DHT22;3884;48.616;12.872;2023-09-08T07:18:46;18.20;1.00
7684;DHT22;3884;48.616;12.872;2023-09-08T07:21:13;18.40;1.00
7684;DHT22;3884;48.616;12.872;2023-09-08T07:23:40;18.80;1.00
7684;DHT22;3884;48.616;12.872;2023-09-08T07:26:08;18.90;1.00
7684;DHT22;3884;48.616;12.872;2023-09-08T07:28:36;19.20;99.90
7684;DHT22;3884;48.616;12.872;2023-09-08T07:31:07;19.30;99.90
7684;DHT22;3884;48.616;12.872;2023-09-08T07:33:37;19.50;1.00
7684;DHT22;3884;48.616;12.872;2023-09-08T07:36:04;19.70;99.90
7684;DHT22;3884;48.616;12.872;2023-09-08T07:38:32;20.10;99.90
7684;DHT22;3884;48.616;12.872;2023-09-08T07:41:00;20.20;99.90
7684;DHT22;3884;48.616;12.872;2023-09-08T07:43:28;20.30;99.90
7684;DHT22;3884;48.616;12.872;2023-09-08T07:45:57;20.70;99.90
7684;DHT22;3884;48.616;12.872;2023-09-08T07:48:23;21.00;91.90
7684;DHT22;3884;48.616;12.872;2023-09-08T07:50:50;21.10;1.00
7684;DHT22;3884;48.616;12.872;2023-09-08T07:53:17;21.40;1.00
7684;DHT22;3884;48.616;12.872;2023-09-08T07:55:44;21.60;1.00
7684;DHT22;3884;48.616;12.872;2023-09-08T07:58:11;21.80;1.00
7684;DHT22;3884;48.616;12.872;2023-09-08T08:00:38;21.80;1.00
7684;DHT22;3884;48.616;12.872;2023-09-08T08:03:06;21.90;1.00
7684;DHT22;3884;48.616;12.872;2023-09-08T08:05:34;21.90;1.00
7684;DHT22;3884;48.616;12.872;2023-09-08T08:08:01;21.70;1.00
7684;DHT22;3884;48.616;12.872;2023-09-08T08:10:27;21.60;1.00
7684;DHT22;3884;48.616;12.872;2023-09-08T08:12:55;21.60;1.00
7684;DHT22;3884;48.616;12.872;2023-09-08T08:15:27;21.50;1.00
7684;DHT22;3884;48.616;12.872;2023-09-08T08:18:00;21.50;1.00
7684;DHT22;3884;48.616;12.872;2023-09-08T08:20:29;21.60;1.00
7684;DHT22;3884;48.616;12.872;2023-09-08T08:23:00;21.90;1.00
7684;DHT22;3884;48.616;12.872;2023-09-08T08:25:27;21.60;1.00
7684;DHT22;3884;48.616;12.872;2023-09-08T08:27:54;22.00;1.00
7684;DHT22;3884;48.616;12.872;2023-09-08T08:30:22;22.30;1.00
7684;DHT22;3884;48.616;12.872;2023-09-08T08:32:48;22.10;1.00
7684;DHT22;3884;48.616;12.872;2023-09-08T08:35:16;22.20;1.00
7684;DHT22;3884;48.616;12.872;2023-09-08T08:37:45;22.40;1.00
7684;DHT22;3884;48.616;12.872;2023-09-08T08:40:12;22.20;1.00
7684;DHT22;3884;48.616;12.872;2023-09-08T08:42:40;22.30;1.00
7684;DHT22;3884;48.616;12.872;2023-09-08T08:45:07;22.40;1.00
7684;DHT22;3884;48.616;12.872;2023-09-08T08:47:34;22.60;1.00
7684;DHT22;3884;48.616;12.872;2023-09-08T08:50:02;22.30;1.00
7684;DHT22;3884;48.616;12.872;2023-09-08T08:52:30;22.20;1.00
7684;DHT22;3884;48.616;12.872;2023-09-08T08:54:59;22.40;1.00
7684;DHT22;3884;48.616;12.872;2023-09-08T08:57:27;22.50;1.00
7684;DHT22;3884;48.616;12.872;2023-09-08T08:59:54;22.70;1.00
7684;DHT22;3884;48.616;12.872;2023-09-08T09:02:22;22.80;1.00
7684;DHT22;3884;48.616;12.872;2023-09-08T09:04:52;23.20;1.00
7684;DHT22;3884;48.616;12.872;2023-09-08T09:07:20;23.20;1.00
7684;DHT22;3884;48.616;12.872;2023-09-08T09:09:46;23.20;1.00
7684;DHT22;3884;48.616;12.872;2023-09-08T09:12:14;23.20;1.00
7684;DHT22;3884;48.616;12.872;2023-09-08T09:14:45;23.30;1.00
7684;DHT22;3884;48.616;12.872;2023-09-08T09:17:13;23.40;1.00
7684;DHT22;3884;48.616;12.872;2023-09-08T09:19:40;23.40;1.00
7684;DHT22;3884;48.616;12.872;2023-09-08T09:22:07;23.30;99.90
7684;DHT22;3884;48.616;12.872;2023-09-08T09:24:35;23.40;99.90
7684;DHT22;3884;48.616;12.872;2023-09-08T09:27:04;23.30;99.90
7684;DHT22;3884;48.616;12.872;2023-09-08T09:29:34;23.40;99.90
7684;DHT22;3884;48.616;12.872;2023-09-08T09:32:03;23.70;99.90
7684;DHT22;3884;48.616;12.872;2023-09-08T09:34:32;23.70;99.90
7684;DHT22;3884;48.616;12.872;2023-09-08T09:37:00;23.80;99.90
7684;DHT22;3884;48.616;12.872;2023-09-08T09:39:27;24.00;99.90
7684;DHT22;3884;48.616;12.872;2023-09-08T09:41:55;23.80;99.90
7684;DHT22;3884;48.616;12.872;2023-09-08T09:44:23;24.00;99.90
7684;DHT22;3884;48.616;12.872;2023-09-08T09:46:53;23.90;99.90
7684;DHT22;3884;48.616;12.872;2023-09-08T09:49:20;23.50;99.90
7684;DHT22;3884;48.616;12.872;2023-09-08T09:51:50;23.50;99.90
7684;DHT22;3884;48.616;12.872;2023-09-08T09:54:19;23.50;99.90
7684;DHT22;3884;48.616;12.872;2023-09-08T09:56:46;23.50;99.90
7684;DHT22;3884;48.616;12.872;2023-09-08T09:59:14;23.60;99.90
7684;DHT22;3884;48.616;12.872;2023-09-08T10:01:41;23.70;99.90
7684;DHT22;3884;48.616;12.872;2023-09-08T10:04:10;23.60;99.90
7684;DHT22;3884;48.616;12.872;2023-09-08T10:06:38;23.60;99.90
7684;DHT22;3884;48.616;12.872;2023-09-08T10:09:06;23.80;99.90
7684;DHT22;3884;48.616;12.872;2023-09-08T10:11:37;23.80;99.90
7684;DHT22;3884;48.616;12.872;2023-09-08T10:14:07;23.90;99.90
7684;DHT22;3884;48.616;12.872;2023-09-08T10:16:39;23.80;99.90
7684;DHT22;3884;48.616;12.872;2023-09-08T10:19:10;23.70;99.90
7684;DHT22;3884;48.616;12.872;2023-09-08T10:21:40;23.90;99.90
7684;DHT22;3884;48.616;12.872;2023-09-08T10:24:14;23.70;99.90
7684;DHT22;3884;48.616;12.872;2023-09-08T10:26:44;23.90;99.90
7684;DHT22;3884;48.616;12.872;2023-09-08T10:29:12;23.90;99.90
7684;DHT22;3884;48.616;12.872;2023-09-08T10:31:40;24.00;99.90
7684;DHT22;3884;48.616;12.872;2023-09-08T10:34:07;23.80;99.90
7684;DHT22;3884;48.616;12.872;2023-09-08T10:36:36;24.00;99.90
7684;DHT22;3884;48.616;12.872;2023-09-08T10:39:37;24.10;99.90
7684;DHT22;3884;48.616;12.872;2023-09-08T10:42:24;24.10;99.90
7684;DHT22;3884;48.616;12.872;2023-09-08T10:44:57;24.30;99.90
7684;DHT22;3884;48.616;12.872;2023-09-08T10:47:25;24.40;99.90
7684;DHT22;3884;48.616;12.872;2023-09-08T10:49:53;24.40;99.90
7684;DHT22;3884;48.616;12.872;2023-09-08T10:52:25;24.30;99.90
7684;DHT22;3884;48.616;12.872;2023-09-08T10:54:53;24.10;99.90
7684;DHT22;3884;48.616;12.872;2023-09-08T10:57:22;24.10;99.90
7684;DHT22;3884;48.616;12.872;2023-09-08T10:59:52;23.90;99.90
7684;DHT22;3884;48.616;12.872;2023-09-08T11:02:35;24.00;99.90
7684;DHT22;3884;48.616;12.872;2023-09-08T11:05:04;24.20;99.90
7684;DHT22;3884;48.616;12.872;2023-09-08T11:07:35;24.10;99.90
7684;DHT22;3884;48.616;12.872;2023-09-08T11:10:02;24.30;99.90
7684;DHT22;3884;48.616;12.872;2023-09-08T11:12:30;24.40;99.90
7684;DHT22;3884;48.616;12.872;2023-09-08T11:14:58;24.30;99.90
7684;DHT22;3884;48.616;12.872;2023-09-08T11:17:27;24.30;99.90
7684;DHT22;3884;48.616;12.872;2023-09-08T11:19:54;24.20;99.90
7684;DHT22;3884;48.616;12.872;2023-09-08T11:22:23;24.10;99.90
7684;DHT22;3884;48.616;12.872;2023-09-08T11:24:52;24.20;99.90
7684;DHT22;3884;48.616;12.872;2023-09-08T11:27:22;24.30;99.90
7684;DHT22;3884;48.616;12.872;2023-09-08T11:29:49;24.30;99.90
7684;DHT22;3884;48.616;12.872;2023-09-08T11:32:16;24.50;99.90
7684;DHT22;3884;48.616;12.872;2023-09-08T11:34:43;24.80;99.90
7684;DHT22;3884;48.616;12.872;2023-09-08T11:37:11;24.80;99.90
7684;DHT22;3884;48.616;12.872;2023-09-08T11:39:39;24.90;99.90
7684;DHT22;3884;48.616;12.872;2023-09-08T11:42:08;24.90;99.90
7684;DHT22;3884;48.616;12.872;2023-09-08T11:44:36;24.60;99.90
7684;DHT22;3884;48.616;12.872;2023-09-08T11:47:06;24.70;99.90
7684;DHT22;3884;48.616;12.872;2023-09-08T11:49:36;24.50;99.90
7684;DHT22;3884;48.616;12.872;2023-09-08T11:52:26;24.50;99.90
7684;DHT22;3884;48.616;12.872;2023-09-08T11:54:58;24.50;99.90
7684;DHT22;3884;48.616;12.872;2023-09-08T11:57:28;24.80;99.90
7684;DHT22;3884;48.616;12.872;2023-09-08T12:00:03;24.90;99.90
7684;DHT22;3884;48.616;12.872;2023-09-08T12:02:40;24.90;99.90
7684;DHT22;3884;48.616;12.872;2023-09-08T12:05:11;24.90;99.90
7684;DHT22;3884;48.616;12.872;2023-09-08T12:07:39;24.90;99.90
7684;DHT22;3884;48.616;12.872;2023-09-08T12:10:08;24.90;99.90
7684;DHT22;3884;48.616;12.872;2023-09-08T12:12:43;24.80;99.90
7684;DHT22;3884;48.616;12.872;2023-09-08T12:15:10;24.80;99.90
7684;DHT22;3884;48.616;12.872;2023-09-08T12:17:47;24.80;99.90
7684;DHT22;3884;48.616;12.872;2023-09-08T12:20:15;25.00;99.90
7684;DHT22;3884;48.616;12.872;2023-09-08T12:22:47;25.10;99.90
7684;DHT22;3884;48.616;12.872;2023-09-08T12:25:15;25.10;99.90
7684;DHT22;3884;48.616;12.872;2023-09-08T12:27:45;25.10;99.90
7684;DHT22;3884;48.616;12.872;2023-09-08T12:30:17;25.20;99.90
7684;DHT22;3884;48.616;12.872;2023-09-08T12:32:47;25.30;99.90
7684;DHT22;3884;48.616;12.872;2023-09-08T12:35:22;25.50;99.90
7684;DHT22;3884;48.616;12.872;2023-09-08T12:37:53;25.40;99.90
7684;DHT22;3884;48.616;12.872;2023-09-08T12:40:21;25.50;99.90
7684;DHT22;3884;48.616;12.872;2023-09-08T12:42:49;25.40;99.90
7684;DHT22;3884;48.616;12.872;2023-09-08T12:45:17;25.60;99.90
7684;DHT22;3884;48.616;12.872;2023-09-08T12:47:45;25.60;99.90
7684;DHT22;3884;48.616;12.872;2023-09-08T12:50:12;25.90;99.90
7684;DHT22;3884;48.616;12.872;2023-09-08T12:52:39;25.90;99.90
7684;DHT22;3884;48.616;12.872;2023-09-08T12:55:07;25.80;99.90
7684;DHT22;3884;48.616;12.872;2023-09-08T12:57:34;26.20;99.90
7684;DHT22;3884;48.616;12.872;2023-09-08T13:00:05;26.20;99.90
7684;DHT22;3884;48.616;12.872;2023-09-08T13:02:33;26.40;99.90
7684;DHT22;3884;48.616;12.872;2023-09-08T13:05:00;26.50;99.90
7684;DHT22;3884;48.616;12.872;2023-09-08T13:07:27;26.40;99.90
7684;DHT22;3884;48.616;12.872;2023-09-08T13:09:54;26.40;99.90
7684;DHT22;3884;48.616;12.872;2023-09-08T13:12:22;26.50;99.90
7684;DHT22;3884;48.616;12.872;2023-09-08T13:14:49;26.20;99.90
7684;DHT22;3884;48.616;12.872;2023-09-08T13:17:17;26.20;99.90
7684;DHT22;3884;48.616;12.872;2023-09-08T13:19:45;25.90;99.90
7684;DHT22;3884;48.616;12.872;2023-09-08T13:22:12;26.40;99.90
7684;DHT22;3884;48.616;12.872;2023-09-08T13:24:39;26.40;99.90
7684;DHT22;3884;48.616;12.872;2023-09-08T13:27:06;26.50;99.90
7684;DHT22;3884;48.616;12.872;2023-09-08T13:29:34;26.60;99.90
7684;DHT22;3884;48.616;12.872;2023-09-08T13:32:01;26.60;99.90
7684;DHT22;3884;48.616;12.872;2023-09-08T13:34:30;26.80;99.90
7684;DHT22;3884;48.616;12.872;2023-09-08T13:36:58;26.50;99.90
7684;DHT22;3884;48.616;12.872;2023-09-08T13:39:25;26.50;99.90
7684;DHT22;3884;48.616;12.872;2023-09-08T13:41:52;26.70;99.90
7684;DHT22;3884;48.616;12.872;2023-09-08T13:44:20;26.90;99.90
7684;DHT22;3884;48.616;12.872;2023-09-08T13:46:48;27.10;99.90
7684;DHT22;3884;48.616;12.872;2023-09-08T13:49:15;27.10;99.90
7684;DHT22;3884;48.616;12.872;2023-09-08T13:51:44;27.20;99.90
7684;DHT22;3884;48.616;12.872;2023-09-08T13:54:12;27.00;99.90
7684;DHT22;3884;48.616;12.872;2023-09-08T13:56:45;27.00;99.90
7684;DHT22;3884;48.616;12.872;2023-09-08T13:59:12;27.00;99.90
7684;DHT22;3884;48.616;12.872;2023-09-08T14:01:39;27.00;99.90
7684;DHT22;3884;48.616;12.872;2023-09-08T14:04:07;27.10;99.90
7684;DHT22;3884;48.616;12.872;2023-09-08T14:06:34;27.30;99.90
7684;DHT22;3884;48.616;12.872;2023-09-08T14:09:02;27.30;99.90
7684;DHT22;3884;48.616;12.872;2023-09-08T14:11:29;27.60;99.90
7684;DHT22;3884;48.616;12.872;2023-09-08T14:13:57;27.60;99.90
7684;DHT22;3884;48.616;12.872;2023-09-08T14:16:24;27.80;99.90
7684;DHT22;3884;48.616;12.872;2023-09-08T14:18:51;27.60;99.90
7684;DHT22;3884;48.616;12.872;2023-09-08T14:21:19;27.80;99.90
7684;DHT22;3884;48.616;12.872;2023-09-08T14:23:46;27.70;99.90
7684;DHT22;3884;48.616;12.872;2023-09-08T14:26:15;27.60;99.90
7684;DHT22;3884;48.616;12.872;2023-09-08T14:28:45;27.70;99.90
7684;DHT22;3884;48.616;12.872;2023-09-08T14:31:13;27.70;99.90
7684;DHT22;3884;48.616;12.872;2023-09-08T14:33:40;27.80;99.90
7684;DHT22;3884;48.616;12.872;2023-09-08T14:36:07;27.70;99.90
7684;DHT22;3884;48.616;12.872;2023-09-08T14:38:33;27.70;99.90
7684;DHT22;3884;48.616;12.872;2023-09-08T14:41:01;27.80;99.90
7684;DHT22;3884;48.616;12.872;2023-09-08T14:43:30;27.70;99.90
7684;DHT22;3884;48.616;12.872;2023-09-08T14:45:57;28.00;99.90
7684;DHT22;3884;48.616;12.872;2023-09-08T14:48:24;28.00;99.90
7684;DHT22;3884;48.616;12.872;2023-09-08T14:50:54;28.00;99.90
7684;DHT22;3884;48.616;12.872;2023-09-08T14:53:22;28.00;99.90
7684;DHT22;3884;48.616;12.872;2023-09-08T14:55:49;28.10;99.90
7684;DHT22;3884;48.616;12.872;2023-09-08T14:58:16;28.20;99.90
7684;DHT22;3884;48.616;12.872;2023-09-08T15:00:44;28.00;99.90
7684;DHT22;3884;48.616;12.872;2023-09-08T15:03:12;28.10;99.90
7684;DHT22;3884;48.616;12.872;2023-09-08T15:05:39;27.90;99.90
7684;DHT22;3884;48.616;12.872;2023-09-08T15:08:06;28.10;99.90
7684;DHT22;3884;48.616;12.872;2023-09-08T15:10:33;28.40;99.90
7684;DHT22;3884;48.616;12.872;2023-09-08T15:13:00;28.50;99.90
7684;DHT22;3884;48.616;12.872;2023-09-08T15:15:28;28.00;99.90
7684;DHT22;3884;48.616;12.872;2023-09-08T15:17:57;27.80;99.90
7684;DHT22;3884;48.616;12.872;2023-09-08T15:20:24;27.80;99.90
7684;DHT22;3884;48.616;12.872;2023-09-08T15:22:51;27.70;99.90
7684;DHT22;3884;48.616;12.872;2023-09-08T15:25:18;27.80;99.90
7684;DHT22;3884;48.616;12.872;2023-09-08T15:27:45;27.80;99.90
7684;DHT22;3884;48.616;12.872;2023-09-08T15:30:13;27.90;99.90
7684;DHT22;3884;48.616;12.872;2023-09-08T15:32:41;28.30;99.90
7684;DHT22;3884;48.616;12.872;2023-09-08T15:35:10;28.30;99.90
7684;DHT22;3884;48.616;12.872;2023-09-08T15:37:37;28.20;99.90
7684;DHT22;3884;48.616;12.872;2023-09-08T15:40:05;28.00;99.90
7684;DHT22;3884;48.616;12.872;2023-09-08T15:42:39;28.00;99.90
7684;DHT22;3884;48.616;12.872;2023-09-08T15:45:07;27.70;99.90
7684;DHT22;3884;48.616;12.872;2023-09-08T15:47:35;27.50;99.90
7684;DHT22;3884;48.616;12.872;2023-09-08T15:50:02;27.80;99.90
7684;DHT22;3884;48.616;12.872;2023-09-08T15:52:34;27.70;99.90
7684;DHT22;3884;48.616;12.872;2023-09-08T15:55:01;27.60;99.90
7684;DHT22;3884;48.616;12.872;2023-09-08T15:57:28;27.40;99.90
7684;DHT22;3884;48.616;12.872;2023-09-08T15:59:55;27.70;99.90
7684;DHT22;3884;48.616;12.872;2023-09-08T16:02:22;27.80;99.90